Jekyll Island, Georgia
Current Conditions -  °F | °C
As of 2:53 PM on Thursday 23 Oct 2014 (Local Time) from KSSI Reporting Station
Clear Clear  
Wind Chill: 71°   Ceiling: Unl
Heat Index: 71°   Visibility: 10mi
Dew Point: 43°   Wind: 7mph
Humidity: 36%   Direction: 310°NW
Pressure: 30.01"   Gusts: NA
Location:  31.07°N, 81.41°W
Report Text: KSSI 231853Z AUTO 31006KT 10SM CLR 22/06 A3001 RMK AO2 SLP161 T02170061
Loading
Personal Weather Stations






























Interactive Weather Map
Tropical Storm Tracking
New forecast layout! Learn more

10-Day Weather Forecast

Advertisements
Track Severe Weather on mobile